Latest Weather Observations for Mount Keith

IDW60801

Issued at 6:34 am WST Sunday 25 September 2016 (issued every 30 minutes, with the page automatically refreshed every 10 minutes)

About weather observations | Map of weather stations | Latest weather observations for WA | Other Formats
Station Details ID: 512019 Name: MOUNT KEITH Lat: -27.29 Lon: 120.55 Height: 542.33 m
Data from the previous 72 hours. | See also: Recent months for locations in Western Australia
Date/Time
WST
Temp
°C
App
Temp
°C
Dew
Point
°C
Rel
Hum
%
Delta-T
°C
Wind Press
QNH
hPa
Press
MSL
hPa
Rain since
9am
mm
Dir  Spd
km/h
Gust
km/h
Spd
kts
Gust
kts
25/06:30am 10.5 4.6 -2.5 40 5.1 S 19 28 10 15 1014.6 1012.9 0.0
25/06:00am 9.5 3.8 -3.4 40 4.9 SSW 17 22 9 12 1014.5 1012.8 0.0
25/05:30am 9.6 4.7 -3.3 40 4.9 SSW 13 19 7 10 1014.2 1012.5 0.0
25/05:00am 9.6 4.7 -3.7 39 5.0 SSW 13 17 7 9 1013.9 1012.2 0.0
25/04:30am 10.0 4.7 -3.3 39 5.1 SSW 15 20 8 11 1013.4 1011.6 0.0
25/04:00am 10.4 4.8 -3.3 38 5.3 SSW 17 20 9 11 1013.0 1011.3 0.0
25/03:30am 11.4 5.8 -3.1 36 5.7 SSW 17 22 9 12 1012.6 1010.9 0.0
25/03:00am 12.4 6.4 -3.0 34 6.1 SSW 19 24 10 13 1012.4 1010.7 0.0
25/02:30am 12.5 7.7 -2.9 34 6.1 SSW 13 17 7 9 1012.4 1010.7 0.0
25/02:00am 12.4 7.6 -2.6 35 6.0 S 13 17 7 9 1012.5 1010.8 0.0
25/01:30am 12.5 8.1 -2.5 35 6.0 SSW 11 15 6 8 1012.7 1011.0 0.0
25/01:00am 12.7 7.9 -2.3 35 6.1 SW 13 17 7 9 1012.9 1011.2 0.0
25/12:30am 13.3 8.5 -2.2 34 6.3 SW 13 17 7 9 1013.0 1011.3 0.0
25/12:00am 12.7 8.3 -2.3 35 6.1 SW 11 15 6 8 1013.3 1011.5 0.0
 
Date/Time
WST
Temp
°C
App
Temp
°C
Dew
Point
°C
Rel
Hum
%
Delta-T
°C
Wind Press
QNH
hPa
Press
MSL
hPa
Rain since
9am
mm
Dir  Spd
km/h
Gust
km/h
Spd
kts
Gust
kts
24/11:30pm 11.5 8.1 -2.3 38 5.5 S 6 9 3 5 1013.5 1011.7 0.0
24/11:00pm 12.1 9.8 -2.5 36 5.9 CALM 0 0 0 0 1013.6 1011.8 0.0
24/10:30pm 13.3 10.3 -2.2 34 6.3 S 4 7 2 4 1013.9 1012.2 0.0
24/10:00pm 13.9 10.3 -2.1 33 6.6 WSW 7 15 4 8 1014.1 1012.4 0.0
24/09:30pm 14.4 10.8 -2.1 32 6.8 SW 7 9 4 5 1014.1 1012.4 0.0
24/09:00pm 15.3 11.9 -1.7 31 7.2 SSW 6 9 3 5 1014.0 1012.3 0.0
24/08:30pm 15.3 12.3 -2.2 30 7.3 S 4 11 2 6 1014.1 1012.4 0.0
24/08:00pm 16.0 12.4 -2.0 29 7.6 S 7 7 4 4 1014.1 1012.4 0.0
24/07:30pm 17.2 13.6 -1.9 27 8.2 SSW 7 9 4 5 1014.0 1012.3 0.0
24/07:00pm 17.8 14.3 -2.5 25 8.6 N 6 9 3 5 1013.8 1012.1 0.0
24/06:30pm 18.7 15.1 -2.3 24 9.0 NNE 7 7 4 4 1013.6 1011.8 0.0
24/06:00pm 20.2 16.7 -1.6 23 9.6 NNW 7 9 4 5 1013.4 1011.6 0.0
24/05:30pm 21.0 18.0 -1.5 22 10.0 E 4 7 2 4 1013.2 1011.4 0.0
24/05:00pm 21.7 18.7 -1.6 21 10.4 S 4 11 2 6 1013.2 1011.4 0.0
24/04:30pm 21.1 17.2 -1.4 22 10.0 ENE 9 13 5 7 1013.2 1011.4 0.0
24/04:00pm 21.5 18.0 -1.1 22 10.2 NW 7 15 4 8 1012.9 1011.2 0.0
24/03:30pm 21.7 18.0 -0.3 23 10.1 ESE 9 15 5 8 1012.7 1011.0 0.0
24/03:00pm 21.1 17.4 -0.2 24 9.7 NNE 9 17 5 9 1012.8 1011.1 0.0
24/02:30pm 20.7 16.5 -1.1 23 9.8 W 11 17 6 9 1013.0 1011.3 0.0
24/02:00pm 19.8 15.6 -0.8 25 9.2 NNW 11 24 6 13 1013.4 1011.6 0.0
24/01:30pm 19.7 15.4 -1.4 24 9.3 NW 11 20 6 11 1013.7 1011.9 0.0
24/01:00pm 19.1 14.8 -1.4 25 9.0 SSW 11 19 6 10 1014.3 1012.6 0.0
24/12:30pm 18.1 13.9 -0.7 28 8.3 SW 11 19 6 10 1014.8 1013.1 0.0
24/12:00pm 18.4 14.3 -0.4 28 8.4 WSW 11 20 6 11 1015.4 1013.7 0.0
24/11:30am 18.1 14.5 0.7 31 7.9 ESE 9 20 5 11 1016.0 1014.3 0.0
24/11:00am 17.1 14.0 1.1 34 7.3 SE 7 15 4 8 1016.4 1014.7 0.0
24/10:30am 16.1 12.6 1.0 36 6.8 SSW 9 15 5 8 1016.8 1015.1 0.0
24/10:00am 15.7 12.2 1.4 38 6.5 ENE 9 17 5 9 1017.2 1015.5 0.0
24/09:30am 14.8 10.9 1.3 40 6.0 E 11 19 6 10 1017.4 1015.7 0.0
24/09:00am 14.1 9.9 1.4 42 5.6 E 13 20 7 11 1017.7 1016.0 0.0
24/08:30am 13.0 7.6 1.4 45 5.1 SE 19 24 10 13 1017.7 1016.0 0.0
24/08:00am 12.3 7.3 1.6 48 4.7 SE 17 22 9 12 1017.6 1015.9 0.0
24/07:30am 11.2 6.3 1.7 52 4.2 SSE 17 20 9 11 1017.4 1015.7 0.0
24/07:00am 10.2 5.3 1.8 56 3.6 SSE 17 22 9 12 1017.2 1015.5 0.0
24/06:30am 8.8 4.6 1.9 62 3.0 S 13 15 7 8 1016.8 1015.1 0.0
24/06:00am 7.8 4.4 1.9 66 2.5 SSW 9 13 5 7 1016.5 1014.8 0.0
24/05:30am 7.9 3.7 1.7 65 2.6 SSW 13 17 7 9 1016.1 1014.4 0.0
24/05:00am 8.3 3.7 1.7 63 2.8 SSW 15 17 8 9 1015.9 1014.2 0.0
24/04:30am 8.6 4.4 1.5 61 3.0 SSW 13 15 7 8 1015.5 1013.8 0.0
24/04:00am 8.9 5.4 1.3 59 3.2 SSW 9 13 5 7 1015.3 1013.5 0.0
24/03:30am 9.5 5.7 1.7 58 3.4 SSW 11 13 6 7 1015.3 1013.5 0.0
24/03:00am 9.7 6.3 1.6 57 3.5 SSW 9 13 5 7 1015.3 1013.5 0.0
24/02:30am 10.2 6.4 1.6 55 3.7 S 11 15 6 8 1014.9 1013.2 0.0
24/02:00am 10.7 6.1 1.5 53 4.0 S 15 20 8 11 1014.7 1013.0 0.0
24/01:30am 11.1 6.1 1.4 51 4.2 SSW 17 22 9 12 1014.7 1013.0 0.0
24/01:00am 11.5 6.4 0.9 48 4.6 SSW 17 22 9 12 1014.7 1013.0 0.0
24/12:30am 11.6 6.8 0.4 46 4.8 SSW 15 17 8 9 1014.8 1013.1 0.0
24/12:00am 12.2 7.8 0.3 44 5.1 SSW 13 17 7 9 1014.8 1013.1 0.0
 
Date/Time
WST
Temp
°C
App
Temp
°C
Dew
Point
°C
Rel
Hum
%
Delta-T
°C
Wind Press
QNH
hPa
Press
MSL
hPa
Rain since
9am
mm
Dir  Spd
km/h
Gust
km/h
Spd
kts
Gust
kts
23/11:30pm 11.6 7.5 -0.2 44 5.0 SW 11 13 6 7 1014.9 1013.2 0.0
23/11:00pm 11.6 8.2 -0.5 43 5.0 SW 7 9 4 5 1015.1 1013.3 0.0
23/10:30pm 12.8 9.0 -0.4 40 5.6 SW 9 11 5 6 1015.3 1013.5 0.0
23/10:00pm 13.5 9.8 -0.2 39 5.9 SSW 9 11 5 6 1015.3 1013.5 0.0
23/09:30pm 14.3 9.4 -0.2 37 6.3 SSW 15 20 8 11 1015.3 1013.5 0.0
23/09:00pm 14.7 10.2 -0.2 36 6.4 SW 13 17 7 9 1015.2 1013.4 0.0
23/08:30pm 15.4 10.6 0.0 35 6.7 SW 15 20 8 11 1014.8 1013.1 0.0
23/08:00pm 16.0 11.1 -0.2 33 7.1 SW 15 20 8 11 1014.5 1012.8 0.0
23/07:30pm 16.8 12.3 -0.4 31 7.6 WSW 13 19 7 10 1014.1 1012.4 0.0
23/07:00pm 17.4 12.1 -0.3 30 7.8 SW 17 20 9 11 1013.6 1011.8 0.0
23/06:30pm 18.1 12.5 -0.2 29 8.2 WSW 19 24 10 13 1013.2 1011.4 0.0
23/06:00pm 18.6 12.8 0.2 29 8.3 WSW 20 28 11 15 1012.8 1011.1 0.0
23/05:30pm 19.4 12.8 -0.1 27 8.8 WSW 24 33 13 18 1012.4 1010.7 0.0
23/05:00pm 20.1 13.6 0.0 26 9.2 W 24 33 13 18 1012.1 1010.4 0.0
23/04:30pm 20.5 14.7 -0.2 25 9.4 WSW 20 32 11 17 1011.8 1010.0 0.0
23/04:00pm 20.4 13.5 0.3 26 9.2 WSW 26 33 14 18 1011.7 1009.9 0.0
23/03:30pm 21.2 14.6 -0.7 23 9.9 WSW 24 39 13 21 1011.6 1009.8 0.0
23/03:00pm 20.6 13.5 -1.2 23 9.7 WSW 26 39 14 21 1011.5 1009.7 0.0
23/02:30pm 20.9 14.4 0.2 25 9.5 WSW 24 39 13 21 1011.6 1009.8 0.0
23/02:00pm 20.8 15.1 0.6 26 9.4 W 20 32 11 17 1011.6 1009.8 0.0
23/01:30pm 19.8 13.0 0.8 28 8.8 W 26 39 14 21 1012.0 1010.2 0.0
23/01:00pm 20.2 13.7 0.6 27 9.0 WSW 24 35 13 19 1012.3 1010.6 0.0
23/12:30pm 18.9 12.5 1.0 30 8.2 SW 24 33 13 18 1012.7 1011.0 0.0
23/12:00pm 18.4 11.9 0.5 30 8.1 SW 24 35 13 19 1013.3 1011.5 0.0
23/11:30am 17.3 11.3 0.9 33 7.4 W 22 32 12 17 1013.7 1011.9 0.0
23/11:00am 16.9 10.6 1.4 35 7.1 WSW 24 44 13 24 1014.0 1012.3 0.0
23/10:30am 16.4 10.7 2.8 40 6.4 SW 22 37 12 20 1014.4 1012.7 0.0
23/10:00am 16.2 10.6 3.6 43 6.0 SW 22 33 12 18 1014.8 1013.1 0.0
23/09:30am 14.7 8.6 4.7 51 4.8 SW 26 35 14 19 1015.1 1013.3 0.0
23/09:00am 14.0 8.4 5.6 57 4.1 WSW 24 37 13 20 1014.9 1013.2 0.0
23/08:30am 13.5 7.3 6.1 61 3.6 SSW 28 39 15 21 1014.9 1013.2 0.0
23/08:00am 14.0 8.5 7.5 65 3.3 SSW 26 35 14 19 1014.8 1013.1 0.0
23/07:30am 12.8 6.6 7.9 72 2.5 SW 30 39 16 21 1014.5 1012.8 0.0
23/07:00am 13.0 7.1 9.1 77 2.0 SW 30 41 16 22 1014.1 1012.4 0.0
23/06:30am 13.4 8.8 9.5 77 2.0 SW 24 32 13 17 1013.7 1011.9 0.0
23/06:00am 13.8 9.3 8.6 71 2.7 SW 22 33 12 18 1013.0 1011.3 0.0
23/05:30am 13.4 10.3 8.9 74 2.3 SW 15 20 8 11 1012.6 1010.9 0.0
23/05:00am 13.5 10.3 8.6 72 2.5 SW 15 20 8 11 1012.2 1010.5 0.0
23/04:30am 14.0 9.9 8.8 71 2.7 SW 20 28 11 15 1012.0 1010.2 0.0
23/04:00am 14.4 8.5 9.0 70 2.8 SW 30 39 16 21 1011.6 1009.8 0.0
23/03:30am 15.0 10.6 7.3 60 3.9 SW 20 28 11 15 1011.0 1009.3 0.0
23/03:00am 15.3 10.5 5.8 53 4.7 SW 20 28 11 15 1010.8 1009.1 0.0
23/02:30am 16.1 10.8 4.8 47 5.5 SW 22 35 12 19 1010.6 1008.9 0.0
23/02:00am 16.7 11.6 4.1 43 6.1 SW 20 30 11 16 1010.6 1008.9 0.0
23/01:30am 17.4 12.0 4.4 42 6.3 SW 22 32 12 17 1010.6 1008.9 0.0
23/01:00am 17.3 12.2 2.9 38 6.8 SW 19 24 10 13 1010.6 1008.9 0.0
23/12:30am 17.9 11.5 3.0 37 7.1 SW 26 39 14 21 1010.7 1009.0 0.0
23/12:13am 18.2 11.2 2.1 34 7.5 SW 28 41 15 22 1010.6 1008.9 0.0
23/12:00am 18.1 13.2 -0.2 29 8.2 SW 15 20 8 11 1010.7 1009.0 0.0
 
Date/Time
WST
Temp
°C
App
Temp
°C
Dew
Point
°C
Rel
Hum
%
Delta-T
°C
Wind Press
QNH
hPa
Press
MSL
hPa
Rain since
9am
mm
Dir  Spd
km/h
Gust
km/h
Spd
kts
Gust
kts
22/11:30pm 18.8 12.9 -1.1 26 8.8 SW 20 30 11 16 1010.5 1008.8 0.0
22/11:00pm 19.4 13.4 -1.7 24 9.2 WSW 20 24 11 13 1010.4 1008.6 0.0
22/10:30pm 19.8 15.1 -1.9 23 9.5 WSW 13 17 7 9 1010.1 1008.3 0.0
22/10:00pm 20.7 15.2 -2.4 21 10.1 W 17 22 9 12 1010.0 1008.2 0.0
22/09:41pm 22.2 14.9 -2.5 19 10.9 W 26 50 14 27 1009.9 1008.1 0.0
22/09:37pm 22.6 16.5 -2.2 19 11.0 WNW 20 50 11 27 1009.9 1008.1 0.0
22/09:30pm 21.6 16.5 -2.3 20 10.5 WNW 15 17 8 9 1009.6 1007.8 0.0
22/09:00pm 20.5 16.1 -2.5 21 10.0 WNW 11 11 6 6 1009.8 1008.0 0.0
22/08:30pm 20.2 15.8 -2.8 21 9.9 W 11 11 6 6 1009.7 1007.9 0.0
22/08:00pm 21.7 17.2 -3.6 18 10.9 W 11 13 6 7 1009.8 1008.0 0.0
22/07:30pm 22.8 18.3 -3.5 17 11.4 W 11 13 6 7 1009.7 1007.9 0.0
22/07:00pm 24.4 18.7 -3.9 15 12.4 W 17 19 9 10 1009.6 1007.8 0.0
22/06:30pm 25.5 19.1 -4.9 13 13.2 WNW 20 28 11 15 1009.4 1007.6 0.0
22/06:00pm 26.4 19.2 -5.3 12 13.8 WNW 24 33 13 18 1009.1 1007.4 0.0
22/05:30pm 27.6 20.6 -6.7 10 14.7 WNW 22 35 12 19 1009.0 1007.3 0.0
22/05:00pm 28.5 20.9 -6.0 10 15.1 NW 26 39 14 21 1008.9 1007.2 0.0
22/04:30pm 29.2 21.6 -5.5 10 15.4 WNW 26 37 14 20 1008.7 1006.9 0.0
22/04:00pm 29.1 21.1 -5.6 10 15.4 WNW 28 43 15 23 1008.8 1007.1 0.0
22/03:30pm 29.2 20.5 -5.5 10 15.4 WNW 32 44 17 24 1008.8 1007.1 0.0
22/03:00pm 29.6 22.0 -5.2 10 15.6 WNW 26 43 14 23 1009.1 1007.4 0.0
22/02:30pm 29.4 22.1 -6.7 9 15.7 NW 24 41 13 22 1009.1 1007.4 0.0
22/02:00pm 29.5 22.3 -5.3 10 15.5 NW 24 41 13 22 1009.8 1008.0 0.0
22/01:30pm 29.3 22.5 -5.4 10 15.4 NNW 22 35 12 19 1010.1 1008.3 0.0
22/01:00pm 29.2 22.9 -5.5 10 15.4 NW 19 39 10 21 1010.6 1008.9 0.0
22/12:30pm 28.3 20.6 -6.2 10 15.0 NW 26 37 14 20 1011.2 1009.4 0.0
22/12:00pm 28.2 20.9 -6.3 10 15.0 NNW 24 35 13 19 1011.9 1010.1 0.0
22/11:30am 28.1 19.7 -6.3 10 14.9 N 30 44 16 24 1012.2 1010.5 0.0
22/11:00am 27.4 18.9 -6.9 10 14.6 NNW 30 44 16 24 1013.0 1011.3 0.0
22/10:30am 26.7 17.9 -6.2 11 14.1 N 32 46 17 25 1013.4 1011.6 0.0
22/10:00am 26.2 17.4 -6.5 11 13.9 N 32 46 17 25 1013.9 1012.2 0.0
22/09:30am 25.2 16.5 -5.1 13 13.1 N 32 43 17 23 1014.0 1012.3 0.0
22/09:00am 23.2 15.7 -4.8 15 11.9 N 26 33 14 18 1014.4 1012.7 0.0
22/08:30am 21.4 14.3 -4.6 17 10.9 N 24 33 13 18 1014.5 1012.8 0.0
22/08:00am 19.0 11.9 -4.4 20 9.7 N 24 33 13 18 1014.7 1013.0 0.0
22/07:30am 18.0 11.8 -4.6 21 9.2 NNE 19 26 10 14 1014.7 1013.0 0.0
22/07:00am 14.6 9.3 -3.2 29 7.2 NE 15 19 8 10 1014.5 1012.8 0.0

Other Formats:

Comma delimited format used in spreadsheet applications
http://www.bom.gov.au/fwo/IDW60801/IDW60801.99434.axf

JavaScript Object Notation format (JSON) in row-major order
http://www.bom.gov.au/fwo/IDW60801/IDW60801.99434.json